sensor_id;sensor_type;location;lat;lon;timestamp;P1;durP1;ratioP1;P2;durP2;ratioP2
12467;SDS011;57850;52.922;6.256;2023-06-10T00:01:09;9.07;;;5.03;;
12467;SDS011;57850;52.922;6.256;2023-06-10T00:03:36;8.98;;;4.97;;
12467;SDS011;57850;52.922;6.256;2023-06-10T00:06:04;7.50;;;4.82;;
12467;SDS011;57850;52.922;6.256;2023-06-10T00:08:30;7.65;;;5.10;;
12467;SDS011;57850;52.922;6.256;2023-06-10T00:10:58;13.07;;;5.15;;
12467;SDS011;57850;52.922;6.256;2023-06-10T00:13:25;10.93;;;5.57;;
12467;SDS011;57850;52.922;6.256;2023-06-10T00:15:51;6.53;;;5.18;;
12467;SDS011;57850;52.922;6.256;2023-06-10T00:18:18;8.95;;;4.70;;
12467;SDS011;57850;52.922;6.256;2023-06-10T00:20:47;7.35;;;4.60;;
12467;SDS011;57850;52.922;6.256;2023-06-10T00:23:19;10.10;;;5.13;;
12467;SDS011;57850;52.922;6.256;2023-06-10T00:25:45;7.60;;;5.22;;
12467;SDS011;57850;52.922;6.256;2023-06-10T00:28:12;9.35;;;5.30;;
12467;SDS011;57850;52.922;6.256;2023-06-10T00:30:39;10.00;;;5.55;;
12467;SDS011;57850;52.922;6.256;2023-06-10T00:33:05;8.60;;;5.10;;
12467;SDS011;57850;52.922;6.256;2023-06-10T00:35:32;8.43;;;5.38;;
12467;SDS011;57850;52.922;6.256;2023-06-10T00:37:58;9.38;;;5.28;;
12467;SDS011;57850;52.922;6.256;2023-06-10T00:40:26;8.50;;;5.78;;
12467;SDS011;57850;52.922;6.256;2023-06-10T00:42:52;8.63;;;5.38;;
12467;SDS011;57850;52.922;6.256;2023-06-10T00:45:19;8.98;;;4.90;;
12467;SDS011;57850;52.922;6.256;2023-06-10T00:47:45;8.43;;;5.28;;
12467;SDS011;57850;52.922;6.256;2023-06-10T00:50:12;7.63;;;5.20;;
12467;SDS011;57850;52.922;6.256;2023-06-10T00:52:38;9.43;;;5.88;;
12467;SDS011;57850;52.922;6.256;2023-06-10T00:55:05;7.43;;;4.85;;
12467;SDS011;57850;52.922;6.256;2023-06-10T00:57:35;8.00;;;5.25;;
12467;SDS011;57850;52.922;6.256;2023-06-10T01:00:03;9.90;;;5.65;;
12467;SDS011;57850;52.922;6.256;2023-06-10T01:02:33;9.95;;;5.65;;
12467;SDS011;57850;52.922;6.256;2023-06-10T01:04:59;12.43;;;5.68;;
12467;SDS011;57850;52.922;6.256;2023-06-10T01:07:28;11.43;;;5.57;;
12467;SDS011;57850;52.922;6.256;2023-06-10T01:10:05;9.55;;;4.95;;
12467;SDS011;57850;52.922;6.256;2023-06-10T01:12:39;7.85;;;5.50;;
12467;SDS011;57850;52.922;6.256;2023-06-10T01:15:13;10.38;;;5.70;;
12467;SDS011;57850;52.922;6.256;2023-06-10T01:17:53;9.45;;;5.53;;
12467;SDS011;57850;52.922;6.256;2023-06-10T01:20:20;10.45;;;5.45;;
12467;SDS011;57850;52.922;6.256;2023-06-10T01:22:48;10.73;;;5.00;;
12467;SDS011;57850;52.922;6.256;2023-06-10T01:25:15;9.00;;;5.28;;
12467;SDS011;57850;52.922;6.256;2023-06-10T01:27:42;7.20;;;4.97;;
12467;SDS011;57850;52.922;6.256;2023-06-10T01:30:14;9.57;;;5.38;;
12467;SDS011;57850;52.922;6.256;2023-06-10T01:32:45;10.48;;;5.68;;
12467;SDS011;57850;52.922;6.256;2023-06-10T01:35:16;9.50;;;6.35;;
12467;SDS011;57850;52.922;6.256;2023-06-10T01:37:44;9.20;;;5.47;;
12467;SDS011;57850;52.922;6.256;2023-06-10T01:40:14;6.93;;;5.50;;
12467;SDS011;57850;52.922;6.256;2023-06-10T01:42:41;9.30;;;5.25;;
12467;SDS011;57850;52.922;6.256;2023-06-10T01:45:09;8.10;;;5.38;;
12467;SDS011;57850;52.922;6.256;2023-06-10T01:47:36;8.52;;;6.18;;
12467;SDS011;57850;52.922;6.256;2023-06-10T01:50:03;11.65;;;5.72;;
12467;SDS011;57850;52.922;6.256;2023-06-10T01:52:29;6.47;;;5.32;;
12467;SDS011;57850;52.922;6.256;2023-06-10T01:54:56;8.02;;;5.68;;
12467;SDS011;57850;52.922;6.256;2023-06-10T01:57:24;8.55;;;5.55;;
12467;SDS011;57850;52.922;6.256;2023-06-10T01:59:50;7.65;;;5.57;;
12467;SDS011;57850;52.922;6.256;2023-06-10T02:02:17;9.30;;;5.45;;
12467;SDS011;57850;52.922;6.256;2023-06-10T02:04:43;8.70;;;5.45;;
12467;SDS011;57850;52.922;6.256;2023-06-10T02:07:09;8.30;;;5.60;;
12467;SDS011;57850;52.922;6.256;2023-06-10T02:09:37;9.75;;;5.57;;
12467;SDS011;57850;52.922;6.256;2023-06-10T02:12:04;13.70;;;5.57;;
12467;SDS011;57850;52.922;6.256;2023-06-10T02:14:33;8.95;;;5.60;;
12467;SDS011;57850;52.922;6.256;2023-06-10T02:17:00;8.48;;;5.88;;
12467;SDS011;57850;52.922;6.256;2023-06-10T02:19:26;8.65;;;5.65;;
12467;SDS011;57850;52.922;6.256;2023-06-10T02:21:53;11.27;;;5.53;;
12467;SDS011;57850;52.922;6.256;2023-06-10T02:24:19;8.57;;;5.45;;
12467;SDS011;57850;52.922;6.256;2023-06-10T02:26:47;8.57;;;5.30;;
12467;SDS011;57850;52.922;6.256;2023-06-10T02:29:13;8.32;;;5.47;;
12467;SDS011;57850;52.922;6.256;2023-06-10T02:31:41;8.15;;;5.38;;
12467;SDS011;57850;52.922;6.256;2023-06-10T02:34:08;7.60;;;5.25;;
12467;SDS011;57850;52.922;6.256;2023-06-10T02:36:34;8.95;;;5.15;;
12467;SDS011;57850;52.922;6.256;2023-06-10T02:39:01;6.60;;;5.03;;
12467;SDS011;57850;52.922;6.256;2023-06-10T02:41:29;8.10;;;5.43;;
12467;SDS011;57850;52.922;6.256;2023-06-10T02:43:56;9.75;;;5.40;;
12467;SDS011;57850;52.922;6.256;2023-06-10T02:46:22;7.53;;;5.32;;
12467;SDS011;57850;52.922;6.256;2023-06-10T02:48:50;9.63;;;5.72;;
12467;SDS011;57850;52.922;6.256;2023-06-10T02:51:17;9.55;;;5.63;;
12467;SDS011;57850;52.922;6.256;2023-06-10T02:53:44;7.68;;;5.28;;
12467;SDS011;57850;52.922;6.256;2023-06-10T02:56:10;14.05;;;6.10;;
12467;SDS011;57850;52.922;6.256;2023-06-10T02:58:37;7.18;;;5.88;;
12467;SDS011;57850;52.922;6.256;2023-06-10T03:01:04;10.38;;;5.85;;
12467;SDS011;57850;52.922;6.256;2023-06-10T03:03:31;8.25;;;5.68;;
12467;SDS011;57850;52.922;6.256;2023-06-10T03:06:00;8.45;;;5.63;;
12467;SDS011;57850;52.922;6.256;2023-06-10T03:08:27;9.00;;;6.03;;
12467;SDS011;57850;52.922;6.256;2023-06-10T03:10:54;10.57;;;6.22;;
12467;SDS011;57850;52.922;6.256;2023-06-10T03:13:20;10.05;;;5.30;;
12467;SDS011;57850;52.922;6.256;2023-06-10T03:15:47;9.00;;;5.03;;
12467;SDS011;57850;52.922;6.256;2023-06-10T03:18:13;9.35;;;5.47;;
12467;SDS011;57850;52.922;6.256;2023-06-10T03:20:40;9.65;;;5.50;;
12467;SDS011;57850;52.922;6.256;2023-06-10T03:23:08;9.68;;;5.43;;
12467;SDS011;57850;52.922;6.256;2023-06-10T03:25:36;9.43;;;5.32;;
12467;SDS011;57850;52.922;6.256;2023-06-10T03:28:02;10.23;;;5.68;;
12467;SDS011;57850;52.922;6.256;2023-06-10T03:30:29;9.38;;;5.30;;
12467;SDS011;57850;52.922;6.256;2023-06-10T03:32:56;10.73;;;5.35;;
12467;SDS011;57850;52.922;6.256;2023-06-10T03:35:22;9.50;;;5.38;;
12467;SDS011;57850;52.922;6.256;2023-06-10T03:37:48;8.82;;;5.75;;
12467;SDS011;57850;52.922;6.256;2023-06-10T03:40:16;9.07;;;5.88;;
12467;SDS011;57850;52.922;6.256;2023-06-10T03:42:43;8.35;;;4.88;;
12467;SDS011;57850;52.922;6.256;2023-06-10T03:45:10;7.63;;;5.00;;
12467;SDS011;57850;52.922;6.256;2023-06-10T03:47:37;8.52;;;5.38;;
12467;SDS011;57850;52.922;6.256;2023-06-10T03:50:06;9.77;;;5.65;;
12467;SDS011;57850;52.922;6.256;2023-06-10T03:52:34;6.60;;;4.97;;
12467;SDS011;57850;52.922;6.256;2023-06-10T03:55:01;6.47;;;4.63;;
12467;SDS011;57850;52.922;6.256;2023-06-10T03:57:28;8.90;;;5.22;;
12467;SDS011;57850;52.922;6.256;2023-06-10T03:59:55;10.55;;;5.50;;
12467;SDS011;57850;52.922;6.256;2023-06-10T04:02:22;8.45;;;5.85;;
12467;SDS011;57850;52.922;6.256;2023-06-10T04:04:48;10.15;;;5.47;;
12467;SDS011;57850;52.922;6.256;2023-06-10T04:07:16;10.98;;;5.68;;
12467;SDS011;57850;52.922;6.256;2023-06-10T04:09:44;9.15;;;5.45;;
12467;SDS011;57850;52.922;6.256;2023-06-10T04:12:11;8.05;;;5.38;;
12467;SDS011;57850;52.922;6.256;2023-06-10T04:14:38;6.60;;;5.13;;
12467;SDS011;57850;52.922;6.256;2023-06-10T04:17:05;8.68;;;5.07;;
12467;SDS011;57850;52.922;6.256;2023-06-10T04:19:32;7.00;;;4.53;;
12467;SDS011;57850;52.922;6.256;2023-06-10T04:22:00;9.07;;;5.43;;
12467;SDS011;57850;52.922;6.256;2023-06-10T04:24:26;9.85;;;5.43;;
12467;SDS011;57850;52.922;6.256;2023-06-10T04:26:53;10.10;;;5.28;;
12467;SDS011;57850;52.922;6.256;2023-06-10T04:29:19;7.25;;;4.95;;
12467;SDS011;57850;52.922;6.256;2023-06-10T04:31:47;8.23;;;5.60;;
12467;SDS011;57850;52.922;6.256;2023-06-10T04:34:14;8.55;;;5.10;;
12467;SDS011;57850;52.922;6.256;2023-06-10T04:36:40;9.70;;;5.25;;
12467;SDS011;57850;52.922;6.256;2023-06-10T04:39:07;7.75;;;5.35;;
12467;SDS011;57850;52.922;6.256;2023-06-10T04:41:34;9.65;;;5.43;;
12467;SDS011;57850;52.922;6.256;2023-06-10T04:44:00;10.93;;;5.18;;
12467;SDS011;57850;52.922;6.256;2023-06-10T04:46:27;9.10;;;5.63;;
12467;SDS011;57850;52.922;6.256;2023-06-10T04:48:56;9.45;;;5.38;;
12467;SDS011;57850;52.922;6.256;2023-06-10T04:51:23;10.45;;;5.53;;
12467;SDS011;57850;52.922;6.256;2023-06-10T04:53:49;9.63;;;5.45;;
12467;SDS011;57850;52.922;6.256;2023-06-10T04:56:16;13.85;;;5.32;;
12467;SDS011;57850;52.922;6.256;2023-06-10T04:58:42;10.95;;;5.40;;
12467;SDS011;57850;52.922;6.256;2023-06-10T05:01:09;9.07;;;5.05;;
12467;SDS011;57850;52.922;6.256;2023-06-10T05:03:35;8.23;;;5.20;;
12467;SDS011;57850;52.922;6.256;2023-06-10T05:06:03;8.25;;;4.90;;
12467;SDS011;57850;52.922;6.256;2023-06-10T05:08:30;8.32;;;5.10;;
12467;SDS011;57850;52.922;6.256;2023-06-10T05:10:56;10.07;;;5.50;;
12467;SDS011;57850;52.922;6.256;2023-06-10T05:13:23;9.20;;;6.00;;
12467;SDS011;57850;52.922;6.256;2023-06-10T05:15:50;9.32;;;5.75;;
12467;SDS011;57850;52.922;6.256;2023-06-10T05:18:16;7.43;;;4.90;;
12467;SDS011;57850;52.922;6.256;2023-06-10T05:20:43;7.50;;;5.00;;
12467;SDS011;57850;52.922;6.256;2023-06-10T05:23:11;9.50;;;5.10;;
12467;SDS011;57850;52.922;6.256;2023-06-10T05:25:37;13.05;;;5.20;;
12467;SDS011;57850;52.922;6.256;2023-06-10T05:28:04;8.95;;;5.63;;
12467;SDS011;57850;52.922;6.256;2023-06-10T05:30:34;9.55;;;5.40;;
12467;SDS011;57850;52.922;6.256;2023-06-10T05:33:01;9.68;;;5.20;;
12467;SDS011;57850;52.922;6.256;2023-06-10T05:35:27;9.98;;;5.20;;
12467;SDS011;57850;52.922;6.256;2023-06-10T05:37:54;7.90;;;4.97;;
12467;SDS011;57850;52.922;6.256;2023-06-10T05:40:22;12.48;;;5.72;;
12467;SDS011;57850;52.922;6.256;2023-06-10T05:42:49;10.20;;;5.50;;
12467;SDS011;57850;52.922;6.256;2023-06-10T05:45:15;8.20;;;5.32;;
12467;SDS011;57850;52.922;6.256;2023-06-10T05:47:42;9.63;;;5.43;;
12467;SDS011;57850;52.922;6.256;2023-06-10T05:50:09;9.55;;;4.82;;
12467;SDS011;57850;52.922;6.256;2023-06-10T05:52:36;8.90;;;4.68;;
12467;SDS011;57850;52.922;6.256;2023-06-10T05:55:05;8.27;;;4.93;;
12467;SDS011;57850;52.922;6.256;2023-06-10T05:57:34;8.07;;;5.20;;
12467;SDS011;57850;52.922;6.256;2023-06-10T06:00:00;8.95;;;5.13;;
12467;SDS011;57850;52.922;6.256;2023-06-10T06:02:27;9.27;;;5.35;;
12467;SDS011;57850;52.922;6.256;2023-06-10T06:04:53;10.05;;;5.53;;
12467;SDS011;57850;52.922;6.256;2023-06-10T06:07:20;9.52;;;5.38;;
12467;SDS011;57850;52.922;6.256;2023-06-10T06:09:46;9.73;;;5.22;;
12467;SDS011;57850;52.922;6.256;2023-06-10T06:12:13;7.82;;;4.82;;
12467;SDS011;57850;52.922;6.256;2023-06-10T06:14:41;10.60;;;5.55;;
12467;SDS011;57850;52.922;6.256;2023-06-10T06:17:08;10.82;;;5.10;;
12467;SDS011;57850;52.922;6.256;2023-06-10T06:19:34;9.02;;;5.18;;
12467;SDS011;57850;52.922;6.256;2023-06-10T06:22:01;10.68;;;5.15;;
12467;SDS011;57850;52.922;6.256;2023-06-10T06:24:27;11.45;;;5.97;;
12467;SDS011;57850;52.922;6.256;2023-06-10T06:26:54;7.03;;;4.93;;
12467;SDS011;57850;52.922;6.256;2023-06-10T06:29:21;10.73;;;5.70;;
12467;SDS011;57850;52.922;6.256;2023-06-10T06:31:48;9.75;;;5.57;;
12467;SDS011;57850;52.922;6.256;2023-06-10T06:34:15;8.05;;;5.05;;
12467;SDS011;57850;52.922;6.256;2023-06-10T06:36:41;11.18;;;5.13;;
12467;SDS011;57850;52.922;6.256;2023-06-10T06:39:08;8.30;;;5.05;;
12467;SDS011;57850;52.922;6.256;2023-06-10T06:41:34;11.00;;;4.70;;
12467;SDS011;57850;52.922;6.256;2023-06-10T06:44:01;9.57;;;5.10;;
12467;SDS011;57850;52.922;6.256;2023-06-10T06:46:27;8.10;;;5.32;;
12467;SDS011;57850;52.922;6.256;2023-06-10T06:48:56;10.93;;;5.15;;
12467;SDS011;57850;52.922;6.256;2023-06-10T06:51:22;9.40;;;4.70;;
12467;SDS011;57850;52.922;6.256;2023-06-10T06:53:49;7.50;;;4.63;;
12467;SDS011;57850;52.922;6.256;2023-06-10T06:56:16;8.23;;;4.68;;
12467;SDS011;57850;52.922;6.256;2023-06-10T06:58:42;9.80;;;4.60;;
12467;SDS011;57850;52.922;6.256;2023-06-10T07:01:09;9.73;;;4.85;;
12467;SDS011;57850;52.922;6.256;2023-06-10T07:03:35;7.07;;;4.53;;
12467;SDS011;57850;52.922;6.256;2023-06-10T07:06:03;9.25;;;4.95;;
12467;SDS011;57850;52.922;6.256;2023-06-10T07:08:30;9.38;;;5.18;;
12467;SDS011;57850;52.922;6.256;2023-06-10T07:10:57;7.68;;;4.55;;
12467;SDS011;57850;52.922;6.256;2023-06-10T07:13:23;7.63;;;4.30;;
12467;SDS011;57850;52.922;6.256;2023-06-10T07:15:50;8.52;;;4.70;;
12467;SDS011;57850;52.922;6.256;2023-06-10T07:18:16;8.75;;;4.35;;
12467;SDS011;57850;52.922;6.256;2023-06-10T07:20:43;11.32;;;4.57;;
12467;SDS011;57850;52.922;6.256;2023-06-10T07:23:11;7.45;;;4.65;;
12467;SDS011;57850;52.922;6.256;2023-06-10T07:25:38;6.75;;;3.97;;
12467;SDS011;57850;52.922;6.256;2023-06-10T07:28:04;9.05;;;4.10;;
12467;SDS011;57850;52.922;6.256;2023-06-10T07:30:31;8.98;;;4.63;;
12467;SDS011;57850;52.922;6.256;2023-06-10T07:32:57;7.57;;;4.28;;
12467;SDS011;57850;52.922;6.256;2023-06-10T07:35:24;7.70;;;4.22;;
12467;SDS011;57850;52.922;6.256;2023-06-10T07:37:50;10.55;;;4.53;;
12467;SDS011;57850;52.922;6.256;2023-06-10T07:40:18;8.50;;;3.85;;
12467;SDS011;57850;52.922;6.256;2023-06-10T07:42:45;7.57;;;4.47;;
12467;SDS011;57850;52.922;6.256;2023-06-10T07:45:12;6.70;;;4.13;;
12467;SDS011;57850;52.922;6.256;2023-06-10T07:47:38;7.57;;;4.43;;
12467;SDS011;57850;52.922;6.256;2023-06-10T07:50:05;7.60;;;4.60;;
12467;SDS011;57850;52.922;6.256;2023-06-10T07:52:32;6.68;;;3.80;;
12467;SDS011;57850;52.922;6.256;2023-06-10T07:54:58;8.38;;;3.90;;
12467;SDS011;57850;52.922;6.256;2023-06-10T07:57:26;7.50;;;4.30;;
12467;SDS011;57850;52.922;6.256;2023-06-10T07:59:52;10.00;;;4.65;;
12467;SDS011;57850;52.922;6.256;2023-06-10T08:02:20;8.45;;;4.53;;
12467;SDS011;57850;52.922;6.256;2023-06-10T08:04:46;6.25;;;4.07;;
12467;SDS011;57850;52.922;6.256;2023-06-10T08:07:13;6.43;;;4.13;;
12467;SDS011;57850;52.922;6.256;2023-06-10T08:09:39;7.47;;;4.13;;
12467;SDS011;57850;52.922;6.256;2023-06-10T08:12:06;6.10;;;3.95;;
12467;SDS011;57850;52.922;6.256;2023-06-10T08:14:34;7.18;;;4.13;;
12467;SDS011;57850;52.922;6.256;2023-06-10T08:17:02;8.70;;;4.13;;
12467;SDS011;57850;52.922;6.256;2023-06-10T08:19:30;8.73;;;4.30;;
12467;SDS011;57850;52.922;6.256;2023-06-10T08:21:56;6.32;;;3.85;;
12467;SDS011;57850;52.922;6.256;2023-06-10T08:24:23;8.40;;;4.07;;
12467;SDS011;57850;52.922;6.256;2023-06-10T08:26:49;6.28;;;4.22;;
12467;SDS011;57850;52.922;6.256;2023-06-10T08:29:16;5.55;;;3.72;;
12467;SDS011;57850;52.922;6.256;2023-06-10T08:31:44;11.00;;;4.10;;
12467;SDS011;57850;52.922;6.256;2023-06-10T08:34:10;5.63;;;3.58;;
12467;SDS011;57850;52.922;6.256;2023-06-10T08:36:37;7.60;;;4.07;;
12467;SDS011;57850;52.922;6.256;2023-06-10T08:39:04;5.85;;;4.18;;
12467;SDS011;57850;52.922;6.256;2023-06-10T08:41:30;6.65;;;4.00;;
12467;SDS011;57850;52.922;6.256;2023-06-10T08:44:03;5.75;;;4.10;;
12467;SDS011;57850;52.922;6.256;2023-06-10T08:46:34;7.70;;;4.15;;
12467;SDS011;57850;52.922;6.256;2023-06-10T08:49:05;9.30;;;3.92;;
12467;SDS011;57850;52.922;6.256;2023-06-10T08:51:32;10.65;;;4.05;;
12467;SDS011;57850;52.922;6.256;2023-06-10T08:54:02;8.20;;;3.97;;
12467;SDS011;57850;52.922;6.256;2023-06-10T08:56:31;5.75;;;3.67;;
12467;SDS011;57850;52.922;6.256;2023-06-10T08:59:03;9.32;;;4.18;;
12467;SDS011;57850;52.922;6.256;2023-06-10T09:01:29;5.88;;;4.10;;
12467;SDS011;57850;52.922;6.256;2023-06-10T09:03:57;7.72;;;4.03;;
12467;SDS011;57850;52.922;6.256;2023-06-10T09:06:26;6.38;;;4.35;;
12467;SDS011;57850;52.922;6.256;2023-06-10T09:08:53;5.00;;;4.10;;
12467;SDS011;57850;52.922;6.256;2023-06-10T09:11:21;6.95;;;4.07;;
12467;SDS011;57850;52.922;6.256;2023-06-10T09:13:47;5.47;;;4.10;;
12467;SDS011;57850;52.922;6.256;2023-06-10T09:16:14;8.07;;;4.78;;
12467;SDS011;57850;52.922;6.256;2023-06-10T09:18:41;6.00;;;4.20;;
12467;SDS011;57850;52.922;6.256;2023-06-10T09:21:08;6.43;;;4.50;;
12467;SDS011;57850;52.922;6.256;2023-06-10T09:23:36;5.43;;;3.95;;
12467;SDS011;57850;52.922;6.256;2023-06-10T09:26:07;5.88;;;4.15;;
12467;SDS011;57850;52.922;6.256;2023-06-10T09:28:35;7.35;;;4.40;;
12467;SDS011;57850;52.922;6.256;2023-06-10T09:31:02;5.22;;;4.30;;
12467;SDS011;57850;52.922;6.256;2023-06-10T09:33:30;6.35;;;4.30;;
12467;SDS011;57850;52.922;6.256;2023-06-10T09:35:57;5.68;;;4.20;;
12467;SDS011;57850;52.922;6.256;2023-06-10T09:38:29;8.30;;;4.38;;
12467;SDS011;57850;52.922;6.256;2023-06-10T09:40:58;5.82;;;3.95;;
12467;SDS011;57850;52.922;6.256;2023-06-10T09:43:38;6.18;;;4.40;;
12467;SDS011;57850;52.922;6.256;2023-06-10T09:46:06;7.22;;;3.80;;
12467;SDS011;57850;52.922;6.256;2023-06-10T09:48:40;5.82;;;3.85;;
12467;SDS011;57850;52.922;6.256;2023-06-10T09:51:08;7.00;;;4.28;;
12467;SDS011;57850;52.922;6.256;2023-06-10T09:53:35;7.93;;;4.70;;
12467;SDS011;57850;52.922;6.256;2023-06-10T09:56:04;8.32;;;4.30;;
12467;SDS011;57850;52.922;6.256;2023-06-10T09:58:37;7.03;;;4.38;;
12467;SDS011;57850;52.922;6.256;2023-06-10T10:01:04;6.43;;;5.05;;
12467;SDS011;57850;52.922;6.256;2023-06-10T10:03:31;5.88;;;4.78;;
12467;SDS011;57850;52.922;6.256;2023-06-10T10:05:58;6.88;;;5.13;;
12467;SDS011;57850;52.922;6.256;2023-06-10T10:08:25;6.75;;;5.00;;
12467;SDS011;57850;52.922;6.256;2023-06-10T10:10:52;6.50;;;4.32;;
12467;SDS011;57850;52.922;6.256;2023-06-10T10:13:20;5.03;;;3.88;;
12467;SDS011;57850;52.922;6.256;2023-06-10T10:15:47;5.65;;;4.93;;
12467;SDS011;57850;52.922;6.256;2023-06-10T10:18:14;6.63;;;5.18;;
12467;SDS011;57850;52.922;6.256;2023-06-10T10:20:49;7.72;;;4.45;;
12467;SDS011;57850;52.922;6.256;2023-06-10T10:23:18;4.35;;;3.95;;
12467;SDS011;57850;52.922;6.256;2023-06-10T10:25:51;4.70;;;4.30;;
12467;SDS011;57850;52.922;6.256;2023-06-10T10:28:21;4.90;;;3.90;;
12467;SDS011;57850;52.922;6.256;2023-06-10T10:30:52;6.53;;;4.68;;
12467;SDS011;57850;52.922;6.256;2023-06-10T10:33:41;5.70;;;4.38;;
12467;SDS011;57850;52.922;6.256;2023-06-10T10:36:14;5.20;;;4.55;;
12467;SDS011;57850;52.922;6.256;2023-06-10T10:38:44;5.25;;;4.53;;
12467;SDS011;57850;52.922;6.256;2023-06-10T10:41:13;5.57;;;4.35;;
12467;SDS011;57850;52.922;6.256;2023-06-10T10:43:42;7.25;;;4.65;;
12467;SDS011;57850;52.922;6.256;2023-06-10T10:46:12;5.35;;;4.60;;
12467;SDS011;57850;52.922;6.256;2023-06-10T10:48:39;6.93;;;4.38;;
12467;SDS011;57850;52.922;6.256;2023-06-10T10:51:07;4.50;;;4.10;;
12467;SDS011;57850;52.922;6.256;2023-06-10T10:53:34;4.63;;;4.15;;
12467;SDS011;57850;52.922;6.256;2023-06-10T10:56:04;4.60;;;4.20;;
12467;SDS011;57850;52.922;6.256;2023-06-10T10:58:32;6.10;;;3.90;;
12467;SDS011;57850;52.922;6.256;2023-06-10T11:01:00;4.82;;;4.43;;
12467;SDS011;57850;52.922;6.256;2023-06-10T11:03:42;5.25;;;4.70;;
12467;SDS011;57850;52.922;6.256;2023-06-10T11:06:12;6.75;;;4.18;;
12467;SDS011;57850;52.922;6.256;2023-06-10T11:08:46;5.50;;;4.18;;
12467;SDS011;57850;52.922;6.256;2023-06-10T11:11:17;5.75;;;4.78;;
12467;SDS011;57850;52.922;6.256;2023-06-10T11:13:57;6.47;;;4.90;;
12467;SDS011;57850;52.922;6.256;2023-06-10T11:16:27;6.40;;;4.63;;
12467;SDS011;57850;52.922;6.256;2023-06-10T11:18:54;5.75;;;4.15;;
12467;SDS011;57850;52.922;6.256;2023-06-10T11:21:22;5.57;;;4.05;;
12467;SDS011;57850;52.922;6.256;2023-06-10T11:23:50;4.63;;;4.20;;
12467;SDS011;57850;52.922;6.256;2023-06-10T11:26:20;5.40;;;4.53;;
12467;SDS011;57850;52.922;6.256;2023-06-10T11:29:01;4.97;;;3.97;;
12467;SDS011;57850;52.922;6.256;2023-06-10T11:31:42;5.22;;;4.32;;
12467;SDS011;57850;52.922;6.256;2023-06-10T11:34:11;4.93;;;4.28;;
12467;SDS011;57850;52.922;6.256;2023-06-10T11:36:39;4.47;;;4.18;;
12467;SDS011;57850;52.922;6.256;2023-06-10T11:39:07;4.35;;;3.95;;
12467;SDS011;57850;52.922;6.256;2023-06-10T11:41:35;4.40;;;4.03;;
12467;SDS011;57850;52.922;6.256;2023-06-10T11:44:03;8.02;;;4.22;;
12467;SDS011;57850;52.922;6.256;2023-06-10T11:46:31;4.28;;;3.92;;
12467;SDS011;57850;52.922;6.256;2023-06-10T11:48:59;4.00;;;3.65;;
12467;SDS011;57850;52.922;6.256;2023-06-10T11:51:27;6.13;;;4.35;;
12467;SDS011;57850;52.922;6.256;2023-06-10T11:53:55;5.20;;;3.88;;
12467;SDS011;57850;52.922;6.256;2023-06-10T11:56:21;5.32;;;4.18;;
12467;SDS011;57850;52.922;6.256;2023-06-10T11:58:52;4.15;;;3.85;;
12467;SDS011;57850;52.922;6.256;2023-06-10T12:01:20;3.70;;;3.40;;
12467;SDS011;57850;52.922;6.256;2023-06-10T12:03:47;7.15;;;3.85;;
12467;SDS011;57850;52.922;6.256;2023-06-10T12:06:24;4.65;;;3.63;;
12467;SDS011;57850;52.922;6.256;2023-06-10T12:08:50;3.90;;;3.60;;
12467;SDS011;57850;52.922;6.256;2023-06-10T12:11:17;4.20;;;3.90;;
12467;SDS011;57850;52.922;6.256;2023-06-10T12:13:47;4.75;;;4.20;;
12467;SDS011;57850;52.922;6.256;2023-06-10T12:16:15;4.43;;;4.03;;
12467;SDS011;57850;52.922;6.256;2023-06-10T12:18:43;4.40;;;4.00;;
12467;SDS011;57850;52.922;6.256;2023-06-10T12:21:17;4.43;;;4.03;;
12467;SDS011;57850;52.922;6.256;2023-06-10T12:24:02;4.20;;;3.70;;
12467;SDS011;57850;52.922;6.256;2023-06-10T12:26:34;4.18;;;3.75;;
12467;SDS011;57850;52.922;6.256;2023-06-10T12:29:20;6.53;;;4.28;;
12467;SDS011;57850;52.922;6.256;2023-06-10T12:31:56;5.75;;;3.97;;
12467;SDS011;57850;52.922;6.256;2023-06-10T12:34:30;4.50;;;3.78;;
12467;SDS011;57850;52.922;6.256;2023-06-10T12:36:58;4.32;;;3.95;;
12467;SDS011;57850;52.922;6.256;2023-06-10T12:39:26;4.07;;;3.80;;
12467;SDS011;57850;52.922;6.256;2023-06-10T12:41:53;3.85;;;3.50;;
12467;SDS011;57850;52.922;6.256;2023-06-10T12:44:28;4.53;;;3.40;;
12467;SDS011;57850;52.922;6.256;2023-06-10T12:46:55;3.83;;;3.35;;
12467;SDS011;57850;52.922;6.256;2023-06-10T12:49:22;4.28;;;3.88;;
12467;SDS011;57850;52.922;6.256;2023-06-10T12:51:48;5.15;;;3.88;;
12467;SDS011;57850;52.922;6.256;2023-06-10T12:54:15;4.68;;;4.13;;
12467;SDS011;57850;52.922;6.256;2023-06-10T12:56:43;3.88;;;3.58;;
12467;SDS011;57850;52.922;6.256;2023-06-10T12:59:09;5.30;;;3.90;;
12467;SDS011;57850;52.922;6.256;2023-06-10T13:01:37;3.97;;;3.60;;
12467;SDS011;57850;52.922;6.256;2023-06-10T13:04:04;3.83;;;3.53;;
12467;SDS011;57850;52.922;6.256;2023-06-10T13:06:31;3.72;;;3.42;;
12467;SDS011;57850;52.922;6.256;2023-06-10T13:09:01;5.65;;;4.10;;
12467;SDS011;57850;52.922;6.256;2023-06-10T13:11:28;5.03;;;4.13;;
12467;SDS011;57850;52.922;6.256;2023-06-10T13:13:57;4.55;;;4.15;;
12467;SDS011;57850;52.922;6.256;2023-06-10T13:16:23;3.88;;;3.47;;
12467;SDS011;57850;52.922;6.256;2023-06-10T13:18:50;4.45;;;4.05;;
12467;SDS011;57850;52.922;6.256;2023-06-10T13:21:18;3.95;;;3.65;;
12467;SDS011;57850;52.922;6.256;2023-06-10T13:23:45;4.28;;;3.88;;
12467;SDS011;57850;52.922;6.256;2023-06-10T13:26:13;5.13;;;3.75;;
12467;SDS011;57850;52.922;6.256;2023-06-10T13:28:41;3.55;;;3.25;;
12467;SDS011;57850;52.922;6.256;2023-06-10T13:31:09;4.13;;;3.83;;
12467;SDS011;57850;52.922;6.256;2023-06-10T13:33:36;5.53;;;3.53;;
12467;SDS011;57850;52.922;6.256;2023-06-10T13:36:04;7.20;;;3.65;;
12467;SDS011;57850;52.922;6.256;2023-06-10T13:38:31;4.85;;;3.50;;
12467;SDS011;57850;52.922;6.256;2023-06-10T13:40:57;6.03;;;3.67;;
12467;SDS011;57850;52.922;6.256;2023-06-10T13:43:24;5.93;;;3.90;;
12467;SDS011;57850;52.922;6.256;2023-06-10T13:45:55;4.05;;;3.65;;
12467;SDS011;57850;52.922;6.256;2023-06-10T13:48:23;4.13;;;3.58;;
12467;SDS011;57850;52.922;6.256;2023-06-10T13:50:51;5.22;;;3.83;;
12467;SDS011;57850;52.922;6.256;2023-06-10T13:53:17;4.25;;;3.40;;
12467;SDS011;57850;52.922;6.256;2023-06-10T13:55:44;4.13;;;3.38;;
12467;SDS011;57850;52.922;6.256;2023-06-10T13:58:11;4.80;;;3.70;;
12467;SDS011;57850;52.922;6.256;2023-06-10T14:00:38;5.45;;;3.47;;
12467;SDS011;57850;52.922;6.256;2023-06-10T14:03:05;4.28;;;2.97;;
12467;SDS011;57850;52.922;6.256;2023-06-10T14:05:33;4.32;;;3.53;;
12467;SDS011;57850;52.922;6.256;2023-06-10T14:08:00;4.00;;;3.60;;
12467;SDS011;57850;52.922;6.256;2023-06-10T14:10:26;4.05;;;3.35;;
12467;SDS011;57850;52.922;6.256;2023-06-10T14:12:53;6.57;;;3.22;;
12467;SDS011;57850;52.922;6.256;2023-06-10T14:15:22;4.95;;;3.42;;
12467;SDS011;57850;52.922;6.256;2023-06-10T14:17:49;5.53;;;3.83;;
12467;SDS011;57850;52.922;6.256;2023-06-10T14:20:16;4.05;;;3.53;;
12467;SDS011;57850;52.922;6.256;2023-06-10T14:22:45;4.03;;;3.63;;
12467;SDS011;57850;52.922;6.256;2023-06-10T14:25:11;3.97;;;3.67;;
12467;SDS011;57850;52.922;6.256;2023-06-10T14:27:38;6.95;;;3.58;;
12467;SDS011;57850;52.922;6.256;2023-06-10T14:30:06;4.85;;;3.40;;
12467;SDS011;57850;52.922;6.256;2023-06-10T14:32:33;3.95;;;3.63;;
12467;SDS011;57850;52.922;6.256;2023-06-10T14:35:00;4.63;;;3.58;;
12467;SDS011;57850;52.922;6.256;2023-06-10T14:37:30;5.30;;;3.67;;
12467;SDS011;57850;52.922;6.256;2023-06-10T14:39:59;4.03;;;3.60;;
12467;SDS011;57850;52.922;6.256;2023-06-10T14:42:26;4.88;;;3.65;;
12467;SDS011;57850;52.922;6.256;2023-06-10T14:44:53;4.22;;;3.80;;
12467;SDS011;57850;52.922;6.256;2023-06-10T14:47:20;7.82;;;3.65;;
12467;SDS011;57850;52.922;6.256;2023-06-10T14:49:47;4.55;;;3.50;;